Aviation Digital Data Service (ADDS)

Output produced by METARs form (1216 UTC 29 January 2015)
found at http://www.aviationweather.gov/adds/metars/
 
KCMI 291128Z 2912/3012 24015G25KT P6SM VCSH OVC020 
     FM291400 30020G30KT P6SM VCSH OVC015 
     FM292100 31020G28KT P6SM OVC020 
     FM300300 32014G24KT P6SM OVC025 
     FM300400 32013G23KT P6SM BKN025